Time;durP1;ratioP1;P1;durP2;ratioP2;P2;SDS_P1;SDS_P2;PMS_P1;PMS_P2;Temp;Humidity;BMP_temperature;BMP_pressure;BME280_temperature;BME280_humidity;BME280_pressure;Samples;Min_cycle;Max_cycle;Signal;HPM_P1;HPM_P2
2022/05/12 00:00:44;;;;;;;;;7.33;4.33;;;;;;;;5104873;27;45514;-78
2022/05/12 00:03:09;;;;;;;;;4.33;4.33;;;;;;;;5102652;27;46578;-79
2022/05/12 00:05:34;;;;;;;;;4.67;3.67;;;;;;;;5101195;27;45373;-78
2022/05/12 00:08:00;;;;;;;;;3.67;3.33;;;;;;;;5101336;27;45373;-78
2022/05/12 00:10:25;;;;;;;;;6.33;5.00;;;;;;;;5103830;27;45315;-78
2022/05/12 00:12:51;;;;;;;;;6.00;5.00;;;;;;;;5102455;27;46286;-77
2022/05/12 00:15:21;;;;;;;;;7.33;7.00;;;;;;;;5110891;27;45371;-79
2022/05/12 00:17:46;;;;;;;;;6.00;6.00;;;;;;;;5125312;27;45482;-78
2022/05/12 00:20:13;;;;;;;;;4.00;4.00;;;;;;;;5124892;27;45427;-78
2022/05/12 00:22:39;;;;;;;;;7.00;7.00;;;;;;;;5123277;27;47891;-78
2022/05/12 00:25:09;;;;;;;;;9.00;8.00;;;;;;;;5125737;27;45313;-79
2022/05/12 00:27:34;;;;;;;;;6.33;6.33;;;;;;;;5123727;27;45309;-78
2022/05/12 00:29:59;;;;;;;;;7.67;7.67;;;;;;;;5123424;27;45224;-79
2022/05/12 00:32:24;;;;;;;;;5.67;5.67;;;;;;;;5125629;27;45346;-77
2022/05/12 00:34:49;;;;;;;;;7.00;7.00;;;;;;;;5122990;27;45211;-79
2022/05/12 00:37:15;;;;;;;;;7.00;6.33;;;;;;;;5125481;27;45325;-79
2022/05/12 00:39:40;;;;;;;;;5.00;4.00;;;;;;;;5121911;27;45819;-79
2022/05/12 00:42:05;;;;;;;;;9.00;8.00;;;;;;;;5122859;27;45638;-78
2022/05/12 00:44:30;;;;;;;;;8.67;7.67;;;;;;;;5123118;27;45283;-78
2022/05/12 00:46:56;;;;;;;;;7.67;7.00;;;;;;;;5125588;27;45284;-79
2022/05/12 00:49:40;;;;;;;;;8.00;7.67;;;;;;;;5121376;27;47173;-78
2022/05/12 00:52:07;;;;;;;;;6.33;6.33;;;;;;;;5123120;27;45620;-78
2022/05/12 00:54:42;;;;;;;;;6.33;6.00;;;;;;;;5122687;27;45378;-77
2022/05/12 00:57:08;;;;;;;;;9.00;9.00;;;;;;;;5124589;27;45461;-79
2022/05/12 00:59:34;;;;;;;;;11.00;9.67;;;;;;;;5122014;27;45355;-78
2022/05/12 01:02:00;;;;;;;;;10.67;8.00;;;;;;;;5122794;27;46954;-79
2022/05/12 01:04:26;;;;;;;;;10.67;8.00;;;;;;;;5123006;27;45295;-79
2022/05/12 01:06:52;;;;;;;;;9.00;9.00;;;;;;;;5120794;27;45309;-78
2022/05/12 01:09:18;;;;;;;;;7.33;6.67;;;;;;;;5123328;27;45284;-78
2022/05/12 01:11:43;;;;;;;;;8.67;7.00;;;;;;;;5122335;27;45975;-79
2022/05/12 01:14:10;;;;;;;;;5.00;5.00;;;;;;;;5124217;27;45314;-78
2022/05/12 01:16:37;;;;;;;;;6.67;6.67;;;;;;;;5103231;27;45396;-79
2022/05/12 01:19:03;;;;;;;;;5.33;5.33;;;;;;;;5103950;27;45409;-78
2022/05/12 01:21:28;;;;;;;;;8.33;7.67;;;;;;;;5107614;27;48193;-78
2022/05/12 01:23:53;;;;;;;;;9.00;9.00;;;;;;;;5103336;27;45390;-79
2022/05/12 01:26:19;;;;;;;;;8.33;8.33;;;;;;;;5100263;27;45358;-79
2022/05/12 01:28:44;;;;;;;;;7.00;7.00;;;;;;;;5102581;27;47081;-79
2022/05/12 01:31:14;;;;;;;;;9.33;7.67;;;;;;;;5112357;27;45300;-79
2022/05/12 01:33:40;;;;;;;;;8.00;6.67;;;;;;;;5102077;27;45359;-78
2022/05/12 01:36:05;;;;;;;;;8.33;6.33;;;;;;;;5100137;27;45302;-79
2022/05/12 01:38:31;;;;;;;;;7.33;5.67;;;;;;;;5103076;27;45226;-79
2022/05/12 01:40:57;;;;;;;;;8.33;8.33;;;;;;;;5101545;27;46242;-78
2022/05/12 01:43:22;;;;;;;;;9.33;8.67;;;;;;;;5099833;27;45244;-79
2022/05/12 01:45:48;;;;;;;;;10.33;10.33;;;;;;;;5101144;27;45377;-79
2022/05/12 01:48:13;;;;;;;;;6.33;6.33;;;;;;;;5100617;27;45621;-78
2022/05/12 01:50:40;;;;;;;;;6.00;6.00;;;;;;;;5100663;27;45513;-78
2022/05/12 01:53:06;;;;;;;;;10.00;10.00;;;;;;;;5100165;27;45274;-79
2022/05/12 01:55:31;;;;;;;;;8.00;7.00;;;;;;;;5099228;27;45370;-78
2022/05/12 01:57:57;;;;;;;;;9.33;8.67;;;;;;;;5099548;27;46078;-79
2022/05/12 02:00:23;;;;;;;;;10.33;8.67;;;;;;;;5100929;27;45975;-78
2022/05/12 02:02:49;;;;;;;;;8.67;7.33;;;;;;;;5100735;27;45269;-78
2022/05/12 02:05:14;;;;;;;;;13.67;12.00;;;;;;;;5102002;27;45269;-78
2022/05/12 02:07:40;;;;;;;;;11.00;11.00;;;;;;;;5101503;27;45321;-78
2022/05/12 02:10:07;;;;;;;;;11.33;10.67;;;;;;;;5099357;27;47297;-78
2022/05/12 02:12:32;;;;;;;;;11.33;10.33;;;;;;;;5100463;27;45356;-78
2022/05/12 02:14:57;;;;;;;;;13.00;13.00;;;;;;;;5105284;27;45423;-79
2022/05/12 02:17:23;;;;;;;;;11.67;10.00;;;;;;;;5121531;27;45482;-78
2022/05/12 02:19:48;;;;;;;;;15.67;14.33;;;;;;;;5120817;27;46031;-78
2022/05/12 02:22:13;;;;;;;;;14.00;14.00;;;;;;;;5121661;27;45526;-78
2022/05/12 02:24:38;;;;;;;;;14.67;13.00;;;;;;;;5121451;27;45482;-78
2022/05/12 02:27:03;;;;;;;;;12.33;9.00;;;;;;;;5125040;27;45567;-78
2022/05/12 02:29:29;;;;;;;;;10.00;9.00;;;;;;;;5121004;27;45903;-78
2022/05/12 02:31:54;;;;;;;;;9.67;9.33;;;;;;;;5122289;27;45333;-78
2022/05/12 02:34:19;;;;;;;;;8.33;8.33;;;;;;;;5120754;27;45334;-77
2022/05/12 02:36:59;;;;;;;;;7.33;7.33;;;;;;;;5120626;27;45282;-79
2022/05/12 02:39:26;;;;;;;;;11.33;9.00;;;;;;;;5119489;27;47181;-77
2022/05/12 02:41:51;;;;;;;;;9.00;8.33;;;;;;;;5121965;27;45310;-78
2022/05/12 02:44:16;;;;;;;;;8.33;7.67;;;;;;;;5121541;27;45202;-79
2022/05/12 02:46:42;;;;;;;;;9.00;8.67;;;;;;;;5120511;27;45397;-78
2022/05/12 02:49:08;;;;;;;;;7.00;7.00;;;;;;;;5120385;27;45398;-78
2022/05/12 02:51:33;;;;;;;;;5.00;5.00;;;;;;;;5120469;27;45389;-78
2022/05/12 02:53:58;;;;;;;;;8.67;7.00;;;;;;;;5120642;27;45284;-78
2022/05/12 02:56:25;;;;;;;;;6.00;6.00;;;;;;;;5118984;27;47021;-77
2022/05/12 02:58:50;;;;;;;;;10.33;8.00;;;;;;;;5120258;27;46027;-78
2022/05/12 03:01:15;;;;;;;;;4.00;4.00;;;;;;;;5120191;27;45365;-79
2022/05/12 03:03:40;;;;;;;;;6.33;6.33;;;;;;;;5120424;27;45205;-78
2022/05/12 03:06:05;;;;;;;;;6.67;6.67;;;;;;;;5122072;27;45460;-79
2022/05/12 03:08:31;;;;;;;;;4.67;4.67;;;;;;;;5122397;27;48228;-79
2022/05/12 03:10:56;;;;;;;;;7.33;5.33;;;;;;;;5123892;27;45320;-78
2022/05/12 03:13:23;;;;;;;;;12.00;12.00;;;;;;;;5124009;27;45508;-78
2022/05/12 03:15:48;;;;;;;;;45.25;37.50;;;;;;;;5112976;27;45424;-78
2022/05/12 03:18:13;;;;;;;;;25.00;20.00;;;;;;;;5103116;27;45234;-79
2022/05/12 03:20:38;;;;;;;;;18.00;13.67;;;;;;;;5105831;27;45293;-78
2022/05/12 03:23:04;;;;;;;;;11.00;9.33;;;;;;;;5102132;27;45184;-78
2022/05/12 03:25:29;;;;;;;;;8.33;8.00;;;;;;;;5101923;27;46152;-78
2022/05/12 03:27:54;;;;;;;;;8.00;8.00;;;;;;;;5103047;27;45215;-79
2022/05/12 03:30:22;;;;;;;;;6.00;6.00;;;;;;;;5103038;27;45182;-78
2022/05/12 03:32:47;;;;;;;;;6.33;5.00;;;;;;;;5102698;27;45292;-77
2022/05/12 03:35:13;;;;;;;;;5.67;5.67;;;;;;;;5102614;27;45331;-78
2022/05/12 03:37:39;;;;;;;;;6.00;5.00;;;;;;;;5101080;27;47351;-78
2022/05/12 03:40:05;;;;;;;;;5.00;5.00;;;;;;;;5102685;27;45355;-78
2022/05/12 03:42:30;;;;;;;;;6.67;6.67;;;;;;;;5101498;27;45381;-78
2022/05/12 03:44:56;;;;;;;;;7.00;4.33;;;;;;;;5102695;27;45843;-78
2022/05/12 03:47:26;;;;;;;;;5.33;2.67;;;;;;;;5102572;27;46026;-78
2022/05/12 03:49:53;;;;;;;;;6.33;4.67;;;;;;;;5102343;27;45338;-79
2022/05/12 03:52:19;;;;;;;;;5.33;5.33;;;;;;;;5102648;27;45290;-78
2022/05/12 03:54:44;;;;;;;;;6.67;6.00;;;;;;;;5102346;27;45373;-79
2022/05/12 03:57:11;;;;;;;;;7.33;6.33;;;;;;;;5102692;27;46429;-78
2022/05/12 03:59:38;;;;;;;;;7.67;6.00;;;;;;;;5101018;27;46155;-78
2022/05/12 04:02:03;;;;;;;;;4.67;4.00;;;;;;;;5102578;27;45165;-78
2022/05/12 04:04:29;;;;;;;;;6.00;6.00;;;;;;;;5102094;27;45227;-78
2022/05/12 04:06:55;;;;;;;;;8.00;6.67;;;;;;;;5102432;27;45329;-78
2022/05/12 04:09:20;;;;;;;;;7.00;6.00;;;;;;;;5102383;27;45349;-78
2022/05/12 04:11:45;;;;;;;;;5.33;5.00;;;;;;;;5100953;27;45435;-78
2022/05/12 04:14:10;;;;;;;;;6.33;6.33;;;;;;;;5102169;27;45733;-78
2022/05/12 04:16:36;;;;;;;;;8.00;6.67;;;;;;;;5118917;27;46358;-78
2022/05/12 04:19:05;;;;;;;;;4.67;4.67;;;;;;;;5122743;27;45250;-78
2022/05/12 04:21:31;;;;;;;;;7.00;6.00;;;;;;;;5122840;27;45336;-78
2022/05/12 04:23:57;;;;;;;;;7.00;5.33;;;;;;;;5122981;27;45538;-79
2022/05/12 04:26:22;;;;;;;;;5.67;5.00;;;;;;;;5121148;27;47253;-80
2022/05/12 04:28:47;;;;;;;;;8.00;7.33;;;;;;;;5122671;27;45398;-78
2022/05/12 04:31:12;;;;;;;;;6.33;5.33;;;;;;;;5122778;27;45252;-78
2022/05/12 04:36:21;;;;;;;;;10.00;8.00;;;;;;;;5090196;27;45279;-78
2022/05/12 04:38:47;;;;;;;;;7.00;5.00;;;;;;;;5099072;27;45861;-78
2022/05/12 04:41:12;;;;;;;;;6.00;5.67;;;;;;;;5085220;27;45338;-77
2022/05/12 04:43:38;;;;;;;;;5.33;3.00;;;;;;;;5081504;27;45269;-78
2022/05/12 04:46:03;;;;;;;;;7.33;5.33;;;;;;;;5081640;28;46599;-77
2022/05/12 04:48:31;;;;;;;;;4.33;4.33;;;;;;;;5079849;28;45228;-77
2022/05/12 04:50:57;;;;;;;;;5.00;5.00;;;;;;;;5081393;27;45247;-77
2022/05/12 04:53:22;;;;;;;;;7.33;6.33;;;;;;;;5080953;27;45318;-78
2022/05/12 04:55:47;;;;;;;;;5.00;4.33;;;;;;;;5080456;28;45714;-78
2022/05/12 04:58:13;;;;;;;;;6.33;4.67;;;;;;;;5080935;28;45439;-77
2022/05/12 05:00:40;;;;;;;;;5.33;5.33;;;;;;;;5080984;27;45305;-78
2022/05/12 05:03:06;;;;;;;;;4.33;4.33;;;;;;;;5079424;28;46178;-76
2022/05/12 05:05:31;;;;;;;;;8.00;5.00;;;;;;;;5083355;27;46443;-77
2022/05/12 05:07:56;;;;;;;;;7.33;6.33;;;;;;;;5101409;27;45286;-76
2022/05/12 05:10:22;;;;;;;;;1.67;1.33;;;;;;;;5101514;27;45231;-75
2022/05/12 05:12:48;;;;;;;;;4.67;4.67;;;;;;;;5101153;27;45233;-75
2022/05/12 05:15:14;;;;;;;;;2.67;2.67;;;;;;;;5106921;27;45879;-75
2022/05/12 05:17:40;;;;;;;;;9.67;7.67;;;;;;;;5120572;27;45432;-76
2022/05/12 05:20:06;;;;;;;;;7.00;7.00;;;;;;;;5099759;27;45550;-77
2022/05/12 05:22:32;;;;;;;;;7.33;6.00;;;;;;;;5100299;27;47109;-77
2022/05/12 05:24:58;;;;;;;;;6.33;6.33;;;;;;;;5101046;27;45497;-77
2022/05/12 05:27:23;;;;;;;;;7.00;7.00;;;;;;;;5099247;27;45317;-77
2022/05/12 05:29:49;;;;;;;;;6.00;4.00;;;;;;;;5099001;27;45487;-77
2022/05/12 05:32:15;;;;;;;;;4.00;4.00;;;;;;;;5093105;27;45349;-77
2022/05/12 05:34:40;;;;;;;;;5.67;5.67;;;;;;;;5078834;27;47441;-76
2022/05/12 05:37:06;;;;;;;;;5.67;5.67;;;;;;;;5080264;27;45275;-77
2022/05/12 05:39:31;;;;;;;;;5.67;5.33;;;;;;;;5080608;27;45282;-77
2022/05/12 05:41:58;;;;;;;;;6.33;4.00;;;;;;;;5080471;28;45314;-77
2022/05/12 05:44:24;;;;;;;;;8.33;4.67;;;;;;;;5080314;27;45295;-77
2022/05/12 05:46:49;;;;;;;;;6.33;6.33;;;;;;;;5080179;27;45314;-77
2022/05/12 05:49:14;;;;;;;;;6.00;5.33;;;;;;;;5080300;28;45213;-78
2022/05/12 05:54:24;;;;;;;;;6.33;5.00;;;;;;;;5081275;27;45291;-76
2022/05/12 05:56:49;;;;;;;;;5.00;4.00;;;;;;;;5099350;27;45293;-76
2022/05/12 05:59:14;;;;;;;;;7.67;6.33;;;;;;;;5099062;27;45342;-76
2022/05/12 06:01:39;;;;;;;;;6.33;6.00;;;;;;;;5100486;27;45445;-76
2022/05/12 06:04:05;;;;;;;;;10.00;8.67;;;;;;;;5100021;27;45328;-77
2022/05/12 06:06:30;;;;;;;;;5.33;4.00;;;;;;;;5100588;27;45276;-77
2022/05/12 06:08:55;;;;;;;;;6.67;4.33;;;;;;;;5099348;27;45398;-77
2022/05/12 06:11:20;;;;;;;;;6.00;5.67;;;;;;;;5100339;27;45363;-76
2022/05/12 06:13:48;;;;;;;;;6.33;6.33;;;;;;;;5100173;27;47067;-75
2022/05/12 06:16:14;;;;;;;;;8.00;8.00;;;;;;;;5114329;27;45485;-75
2022/05/12 06:18:39;;;;;;;;;5.00;5.00;;;;;;;;5120758;27;45446;-75
2022/05/12 06:21:05;;;;;;;;;8.33;5.00;;;;;;;;5120738;27;45355;-77
2022/05/12 06:23:32;;;;;;;;;5.33;5.00;;;;;;;;5082224;27;46930;-77
2022/05/12 06:25:57;;;;;;;;;6.00;6.00;;;;;;;;5078419;28;45366;-76
2022/05/12 06:28:23;;;;;;;;;7.00;6.00;;;;;;;;5079912;27;45208;-76
2022/05/12 06:30:48;;;;;;;;;5.00;5.00;;;;;;;;5078350;28;45945;-76
2022/05/12 06:33:17;;;;;;;;;6.00;5.00;;;;;;;;5079211;27;45514;-76
2022/05/12 06:35:43;;;;;;;;;6.67;6.00;;;;;;;;5079616;27;45333;-77
2022/05/12 06:38:09;;;;;;;;;4.00;4.00;;;;;;;;5077852;28;45492;-77
2022/05/12 06:40:34;;;;;;;;;4.33;4.33;;;;;;;;5084332;27;45414;-77
2022/05/12 06:43:02;;;;;;;;;7.00;7.00;;;;;;;;5086581;27;47244;-77
2022/05/12 06:45:29;;;;;;;;;6.00;5.33;;;;;;;;5087880;27;45219;-77
2022/05/12 06:47:54;;;;;;;;;5.00;4.00;;;;;;;;5086745;27;45188;-78
2022/05/12 06:50:21;;;;;;;;;4.00;3.33;;;;;;;;5101751;27;47386;-78
2022/05/12 06:52:46;;;;;;;;;8.00;5.00;;;;;;;;5105761;27;45415;-78
2022/05/12 06:55:12;;;;;;;;;5.67;4.67;;;;;;;;5105677;27;45403;-78
2022/05/12 06:57:38;;;;;;;;;4.67;4.33;;;;;;;;5107437;27;45294;-78
2022/05/12 07:00:04;;;;;;;;;7.67;6.00;;;;;;;;5107243;27;45314;-79
2022/05/12 07:02:30;;;;;;;;;7.00;4.67;;;;;;;;5107043;27;46080;-78
2022/05/12 07:04:55;;;;;;;;;3.00;3.00;;;;;;;;5106773;27;45361;-78
2022/05/12 07:07:21;;;;;;;;;4.67;2.67;;;;;;;;5106881;27;45349;-78
2022/05/12 07:09:47;;;;;;;;;4.00;3.67;;;;;;;;5106621;27;45301;-78
2022/05/12 07:12:13;;;;;;;;;4.00;4.00;;;;;;;;5104989;27;47338;-78
2022/05/12 07:14:38;;;;;;;;;4.33;4.33;;;;;;;;5107218;27;45286;-79
2022/05/12 07:17:03;;;;;;;;;5.00;3.67;;;;;;;;5131217;27;45187;-78
2022/05/12 07:19:31;;;;;;;;;5.33;4.33;;;;;;;;5126981;27;45463;-77
2022/05/12 07:27:24;;;;;;;;;9.00;7.33;;;;;;;;5127719;27;45293;-78
2022/05/12 07:29:49;;;;;;;;;3.00;3.00;;;;;;;;5126789;27;45531;-79
2022/05/12 07:32:14;;;;;;;;;8.33;8.00;;;;;;;;5126632;27;45442;-78
2022/05/12 07:34:40;;;;;;;;;5.33;5.00;;;;;;;;5128388;27;45260;-79
2022/05/12 07:37:05;;;;;;;;;8.67;8.00;;;;;;;;5127280;27;45396;-79
2022/05/12 07:39:31;;;;;;;;;4.00;4.00;;;;;;;;5127312;27;45507;-79
2022/05/12 07:41:58;;;;;;;;;7.00;6.67;;;;;;;;5129777;27;45284;-80
2022/05/12 07:44:31;;;;;;;;;6.67;5.67;;;;;;;;5127873;27;45296;-79
2022/05/12 07:46:57;;;;;;;;;6.00;6.00;;;;;;;;5129609;27;45343;-80
2022/05/12 07:49:22;;;;;;;;;6.67;6.67;;;;;;;;5127913;27;46067;-78
2022/05/12 07:51:48;;;;;;;;;6.00;6.00;;;;;;;;5130027;27;45284;-78
2022/05/12 07:54:13;;;;;;;;;5.33;4.33;;;;;;;;5115662;27;45402;-78
2022/05/12 07:56:38;;;;;;;;;7.00;7.00;;;;;;;;5095708;27;45382;-76
2022/05/12 07:59:05;;;;;;;;;7.67;7.33;;;;;;;;5104129;27;45432;-77
2022/05/12 08:01:30;;;;;;;;;7.67;7.67;;;;;;;;5107527;27;46063;-77
2022/05/12 08:03:55;;;;;;;;;7.00;7.00;;;;;;;;5113659;27;45153;-77
2022/05/12 08:06:21;;;;;;;;;7.67;7.67;;;;;;;;5099841;27;45283;-79
2022/05/12 08:08:48;;;;;;;;;11.67;8.00;;;;;;;;5087805;27;45539;-79
2022/05/12 08:11:14;;;;;;;;;8.33;8.33;;;;;;;;5082066;28;48231;-78
2022/05/12 08:13:39;;;;;;;;;6.67;6.33;;;;;;;;5083072;28;46024;-79
2022/05/12 08:16:05;;;;;;;;;6.00;6.00;;;;;;;;5111120;27;45246;-78
2022/05/12 08:18:31;;;;;;;;;6.67;6.67;;;;;;;;5125800;27;46619;-79
2022/05/12 08:20:57;;;;;;;;;8.00;8.00;;;;;;;;5126797;27;46078;-79
2022/05/12 08:23:22;;;;;;;;;8.33;6.67;;;;;;;;5122701;27;45238;-78
2022/05/12 08:25:48;;;;;;;;;10.00;9.67;;;;;;;;5096473;27;45712;-78
2022/05/12 08:28:14;;;;;;;;;7.67;7.00;;;;;;;;5096399;27;47164;-78
2022/05/12 08:30:39;;;;;;;;;9.67;8.00;;;;;;;;5106116;27;45311;-78
2022/05/12 08:33:04;;;;;;;;;8.33;8.33;;;;;;;;5102116;27;45320;-77
2022/05/12 08:35:30;;;;;;;;;7.00;6.00;;;;;;;;5102441;27;45292;-79
2022/05/12 08:37:55;;;;;;;;;9.00;9.00;;;;;;;;5109769;27;45360;-78
2022/05/12 08:40:39;;;;;;;;;7.00;7.00;;;;;;;;5109537;27;45357;-78
2022/05/12 08:43:09;;;;;;;;;6.00;6.00;;;;;;;;5097826;27;45426;-80
2022/05/12 08:45:35;;;;;;;;;7.67;7.33;;;;;;;;5084078;27;45397;-80
2022/05/12 08:48:00;;;;;;;;;6.00;6.00;;;;;;;;5089165;27;45513;-79
2022/05/12 08:50:27;;;;;;;;;8.33;7.67;;;;;;;;5088017;27;45980;-81
2022/05/12 08:52:55;;;;;;;;;7.67;6.00;;;;;;;;5102523;27;45355;-79
2022/05/12 08:55:32;;;;;;;;;8.00;8.00;;;;;;;;5095141;27;45302;-79
2022/05/12 08:58:00;;;;;;;;;7.67;7.67;;;;;;;;5094231;28;47243;-80
2022/05/12 09:00:27;;;;;;;;;6.33;6.33;;;;;;;;5096052;27;45452;-80
2022/05/12 09:03:12;;;;;;;;;8.00;6.67;;;;;;;;5090847;28;45297;-78
2022/05/12 09:05:42;;;;;;;;;5.67;4.67;;;;;;;;5092653;27;45397;-79
2022/05/12 09:08:16;;;;;;;;;6.00;6.00;;;;;;;;5096883;27;45267;-79
2022/05/12 09:10:56;;;;;;;;;5.33;5.33;;;;;;;;5085910;28;48046;-79
2022/05/12 09:13:26;;;;;;;;;8.67;7.00;;;;;;;;5087610;27;45333;-78
2022/05/12 09:16:10;;;;;;;;;5.00;5.00;;;;;;;;5095685;27;45625;-79
2022/05/12 09:18:36;;;;;;;;;7.33;7.33;;;;;;;;5090981;27;45336;-79
2022/05/12 09:21:04;;;;;;;;;5.00;5.00;;;;;;;;5086188;27;46412;-78
2022/05/12 09:23:29;;;;;;;;;7.67;6.67;;;;;;;;5085008;27;45439;-79
2022/05/12 09:25:55;;;;;;;;;5.67;5.67;;;;;;;;5089843;27;45598;-81
2022/05/12 09:28:34;;;;;;;;;8.67;8.00;;;;;;;;5090162;28;46258;-78
2022/05/12 09:31:01;;;;;;;;;5.00;4.33;;;;;;;;5085403;28;46861;-78
2022/05/12 09:33:29;;;;;;;;;5.00;5.00;;;;;;;;5084042;28;46006;-78
2022/05/12 09:35:56;;;;;;;;;6.33;6.00;;;;;;;;5084257;28;45351;-79
2022/05/12 09:38:23;;;;;;;;;7.33;5.67;;;;;;;;5083922;27;45405;-81
2022/05/12 09:40:48;;;;;;;;;4.33;4.00;;;;;;;;5081924;28;47553;-78
2022/05/12 09:43:31;;;;;;;;;8.33;7.67;;;;;;;;5080981;28;45300;-82
2022/05/12 09:46:05;;;;;;;;;7.67;7.67;;;;;;;;5080481;28;45375;-80
2022/05/12 09:48:37;;;;;;;;;7.33;7.33;;;;;;;;5083693;28;45447;-82
2022/05/12 09:51:15;;;;;;;;;4.33;4.00;;;;;;;;5081788;27;45305;-82
2022/05/12 09:53:41;;;;;;;;;5.67;5.67;;;;;;;;5083623;28;45402;-78
2022/05/12 09:56:08;;;;;;;;;6.00;6.00;;;;;;;;5089057;27;45276;-78
2022/05/12 09:58:33;;;;;;;;;5.00;5.00;;;;;;;;5086793;27;46118;-79
2022/05/12 10:01:09;;;;;;;;;7.00;4.67;;;;;;;;5088165;28;47176;-79
2022/05/12 10:09:15;;;;;;;;;8.00;5.00;;;;;;;;5085810;28;45272;-79
2022/05/12 10:11:43;;;;;;;;;6.33;5.00;;;;;;;;5085420;27;47215;-79
2022/05/12 10:14:16;;;;;;;;;6.33;3.33;;;;;;;;5099499;27;45844;-79
2022/05/12 10:16:41;;;;;;;;;5.00;5.00;;;;;;;;5123384;27;45282;-78
2022/05/12 10:19:10;;;;;;;;;4.00;4.00;;;;;;;;5103947;27;47095;-78
2022/05/12 10:21:38;;;;;;;;;3.00;3.00;;;;;;;;5099599;27;47093;-76
2022/05/12 10:24:27;;;;;;;;;6.33;5.33;;;;;;;;5099596;27;45697;-76
2022/05/12 10:26:56;;;;;;;;;4.67;3.67;;;;;;;;5100354;27;45254;-76
2022/05/12 10:29:27;;;;;;;;;3.00;3.00;;;;;;;;5103867;27;45417;-75
2022/05/12 10:31:52;;;;;;;;;5.00;3.67;;;;;;;;5104953;27;46108;-77
2022/05/12 10:34:20;;;;;;;;;6.00;5.00;;;;;;;;5102624;27;45321;-78
2022/05/12 10:37:00;;;;;;;;;5.00;4.67;;;;;;;;5102371;27;45502;-77
2022/05/12 10:39:32;;;;;;;;;4.00;4.00;;;;;;;;5100520;27;46178;-77
2022/05/12 10:42:17;;;;;;;;;3.67;3.67;;;;;;;;5102451;27;45414;-74
2022/05/12 10:44:52;;;;;;;;;5.33;5.33;;;;;;;;5104702;27;45235;-76
2022/05/12 10:47:17;;;;;;;;;6.00;4.33;;;;;;;;5105014;27;45391;-75
2022/05/12 10:50:01;;;;;;;;;5.00;3.00;;;;;;;;5101140;27;45399;-77
2022/05/12 10:52:39;;;;;;;;;5.00;4.33;;;;;;;;5101595;27;45683;-77
2022/05/12 10:55:10;;;;;;;;;3.33;2.33;;;;;;;;5104445;27;45263;-76
2022/05/12 10:57:49;;;;;;;;;6.00;4.33;;;;;;;;5102205;27;45378;-74
2022/05/12 11:00:17;;;;;;;;;5.33;3.67;;;;;;;;5101021;27;45329;-74
2022/05/12 11:02:44;;;;;;;;;6.00;5.67;;;;;;;;5101662;27;46731;-75
2022/05/12 11:05:25;;;;;;;;;4.00;3.00;;;;;;;;5100757;27;45349;-75
2022/05/12 11:08:14;;;;;;;;;4.00;4.00;;;;;;;;5098735;27;45361;-75
2022/05/12 11:10:44;;;;;;;;;5.33;5.00;;;;;;;;5093456;27;45955;-77
2022/05/12 11:13:15;;;;;;;;;3.33;3.00;;;;;;;;5098611;27;47237;-75
2022/05/12 11:15:47;;;;;;;;;4.67;4.67;;;;;;;;5109847;27;45424;-76
2022/05/12 11:18:17;;;;;;;;;3.00;3.00;;;;;;;;5119149;27;45336;-76
2022/05/12 11:20:44;;;;;;;;;4.00;3.33;;;;;;;;5120213;27;45405;-75
2022/05/12 11:23:28;;;;;;;;;3.67;3.00;;;;;;;;5122541;27;45437;-75
2022/05/12 11:25:53;;;;;;;;;3.00;3.00;;;;;;;;5121040;27;45920;-77
2022/05/12 11:31:17;;;;;;;;;4.00;3.67;;;;;;;;5125944;27;45239;-75
2022/05/12 11:33:47;;;;;;;;;5.00;2.00;;;;;;;;5126837;27;45555;-76
2022/05/12 11:36:12;;;;;;;;;5.00;4.00;;;;;;;;5125283;27;45320;-74
2022/05/12 11:38:43;;;;;;;;;4.00;4.00;;;;;;;;5123450;27;45517;-75
2022/05/12 11:41:21;;;;;;;;;4.00;2.00;;;;;;;;5123548;27;45360;-75
2022/05/12 11:46:44;;;;;;;;;3.00;2.33;;;;;;;;5123581;27;45424;-74
2022/05/12 11:49:24;;;;;;;;;4.33;3.33;;;;;;;;5123597;27;45384;-74
2022/05/12 11:51:53;;;;;;;;;4.33;4.33;;;;;;;;5122022;27;46319;-74
2022/05/12 11:54:26;;;;;;;;;3.00;2.00;;;;;;;;5123424;27;46398;-74
2022/05/12 11:56:53;;;;;;;;;2.00;2.00;;;;;;;;5128731;27;45452;-78
2022/05/12 11:59:41;;;;;;;;;2.67;2.67;;;;;;;;5130085;27;45255;-77
2022/05/12 12:02:26;;;;;;;;;2.00;2.00;;;;;;;;5132539;27;45408;-77
2022/05/12 12:04:52;;;;;;;;;2.00;2.00;;;;;;;;5127242;27;47081;-76
2022/05/12 12:07:21;;;;;;;;;4.00;4.00;;;;;;;;5125152;27;45241;-77
2022/05/12 12:09:46;;;;;;;;;4.33;3.00;;;;;;;;5107397;27;45484;-77
2022/05/12 12:12:31;;;;;;;;;5.00;3.00;;;;;;;;5094317;27;46325;-79
2022/05/12 12:14:59;;;;;;;;;3.00;1.00;;;;;;;;5092160;27;46034;-78
2022/05/12 12:17:24;;;;;;;;;2.67;2.00;;;;;;;;5122993;27;45689;-78
2022/05/12 12:19:52;;;;;;;;;5.00;4.00;;;;;;;;5121829;27;45440;-79
2022/05/12 12:22:20;;;;;;;;;4.00;2.33;;;;;;;;5121644;27;46349;-79
2022/05/12 12:25:00;;;;;;;;;2.00;2.00;;;;;;;;5122791;27;46151;-78
2022/05/12 12:27:26;;;;;;;;;4.67;3.00;;;;;;;;5122925;27;45312;-78
2022/05/12 12:29:51;;;;;;;;;2.00;1.33;;;;;;;;5121595;27;45289;-77
2022/05/12 12:32:28;;;;;;;;;2.00;2.00;;;;;;;;5123576;27;45369;-79
2022/05/12 12:34:54;;;;;;;;;2.00;2.00;;;;;;;;5123052;27;45360;-79
2022/05/12 12:37:38;;;;;;;;;2.33;2.33;;;;;;;;5122495;27;45349;-80
2022/05/12 12:40:23;;;;;;;;;4.33;4.33;;;;;;;;5123274;27;45407;-78
2022/05/12 12:42:49;;;;;;;;;2.67;2.67;;;;;;;;5122693;27;45513;-77
2022/05/12 12:45:18;;;;;;;;;4.00;3.00;;;;;;;;5122899;27;45865;-78
2022/05/12 12:47:53;;;;;;;;;3.00;3.00;;;;;;;;5121341;27;45369;-78
2022/05/12 12:50:40;;;;;;;;;3.00;3.00;;;;;;;;5103830;27;45290;-78
2022/05/12 12:53:06;;;;;;;;;3.00;3.00;;;;;;;;5101032;27;46490;-77
2022/05/12 12:58:28;;;;;;;;;2.33;2.33;;;;;;;;5103675;27;45373;-78
2022/05/12 13:01:01;;;;;;;;;3.00;3.00;;;;;;;;5101748;27;45345;-77
2022/05/12 13:03:31;;;;;;;;;3.00;3.00;;;;;;;;5101914;27;45269;-77
2022/05/12 13:06:09;;;;;;;;;2.00;2.00;;;;;;;;5102028;27;46121;-78
2022/05/12 13:08:35;;;;;;;;;3.00;3.00;;;;;;;;5103092;27;45278;-78
2022/05/12 13:11:01;;;;;;;;;3.00;3.00;;;;;;;;5103827;27;45281;-79
2022/05/12 13:13:27;;;;;;;;;4.33;4.33;;;;;;;;5103559;27;45476;-79
2022/05/12 13:16:00;;;;;;;;;4.00;2.67;;;;;;;;5113084;27;45408;-79
2022/05/12 13:18:30;;;;;;;;;3.00;3.00;;;;;;;;5122130;27;45790;-79
2022/05/12 13:20:56;;;;;;;;;3.00;3.00;;;;;;;;5122394;27;45634;-79
2022/05/12 13:23:29;;;;;;;;;2.33;2.33;;;;;;;;5122032;27;45467;-78
2022/05/12 13:25:55;;;;;;;;;1.33;1.00;;;;;;;;5122287;27;45374;-77
2022/05/12 13:28:22;;;;;;;;;2.00;2.00;;;;;;;;5122634;27;45424;-78
2022/05/12 13:30:52;;;;;;;;;3.67;3.67;;;;;;;;5122363;27;45357;-77
2022/05/12 13:33:18;;;;;;;;;2.33;2.00;;;;;;;;5121396;27;45365;-77
2022/05/12 13:35:53;;;;;;;;;2.00;2.00;;;;;;;;5121954;27;45437;-77
2022/05/12 13:38:21;;;;;;;;;2.00;2.00;;;;;;;;5120190;27;46034;-78
2022/05/12 13:40:50;;;;;;;;;2.00;2.00;;;;;;;;5122216;27;45423;-80
2022/05/12 13:43:27;;;;;;;;;2.00;2.00;;;;;;;;5120953;27;46098;-79
2022/05/12 13:46:04;;;;;;;;;2.00;1.33;;;;;;;;5121633;27;45279;-79
2022/05/12 13:48:29;;;;;;;;;2.00;1.00;;;;;;;;5119648;27;45470;-79
2022/05/12 13:50:56;;;;;;;;;1.33;1.33;;;;;;;;5121263;27;45333;-79
2022/05/12 13:53:32;;;;;;;;;1.00;1.00;;;;;;;;5121574;27;45393;-79
2022/05/12 13:56:06;;;;;;;;;4.00;3.00;;;;;;;;5119817;27;47099;-79
2022/05/12 13:58:31;;;;;;;;;4.67;3.00;;;;;;;;5121381;27;45341;-79
2022/05/12 14:00:56;;;;;;;;;1.67;1.67;;;;;;;;5121606;27;45366;-79
2022/05/12 14:03:28;;;;;;;;;1.67;1.67;;;;;;;;5121432;27;45370;-79
2022/05/12 14:06:09;;;;;;;;;3.00;3.00;;;;;;;;5121815;27;46086;-78
2022/05/12 14:08:34;;;;;;;;;2.67;2.67;;;;;;;;5120524;27;45414;-79
2022/05/12 14:11:02;;;;;;;;;2.00;1.33;;;;;;;;5121549;27;45407;-77
2022/05/12 14:19:14;;;;;;;;;4.00;2.67;;;;;;;;5100113;27;45420;-76
2022/05/12 14:21:43;;;;;;;;;4.67;3.00;;;;;;;;5100476;27;45437;-77
2022/05/12 14:24:08;;;;;;;;;5.67;5.00;;;;;;;;5099355;27;47571;-78
2022/05/12 14:26:33;;;;;;;;;2.00;2.00;;;;;;;;5099059;27;48077;-77
2022/05/12 14:28:59;;;;;;;;;2.33;2.33;;;;;;;;5099127;27;45317;-78
2022/05/12 14:31:24;;;;;;;;;2.00;2.00;;;;;;;;5100585;27;45352;-77
2022/05/12 14:33:49;;;;;;;;;3.33;2.00;;;;;;;;5100262;27;45413;-77
2022/05/12 14:36:15;;;;;;;;;3.00;2.00;;;;;;;;5098912;27;46951;-77
2022/05/12 14:38:40;;;;;;;;;3.00;1.67;;;;;;;;5100621;27;45287;-78
2022/05/12 14:41:05;;;;;;;;;1.00;1.00;;;;;;;;5101608;27;45325;-77
2022/05/12 14:43:30;;;;;;;;;2.00;2.00;;;;;;;;5099458;27;45999;-77
2022/05/12 14:45:56;;;;;;;;;3.00;3.00;;;;;;;;5101396;27;46026;-79
2022/05/12 14:48:21;;;;;;;;;3.00;1.00;;;;;;;;5101943;27;45318;-78
2022/05/12 14:50:46;;;;;;;;;2.33;2.33;;;;;;;;5102126;27;45833;-77
2022/05/12 14:53:14;;;;;;;;;4.33;3.33;;;;;;;;5100905;27;45415;-79
2022/05/12 14:55:40;;;;;;;;;1.00;1.00;;;;;;;;5099883;27;46899;-77
2022/05/12 14:58:06;;;;;;;;;1.67;1.67;;;;;;;;5102031;27;45326;-78
2022/05/12 15:00:32;;;;;;;;;3.00;2.00;;;;;;;;5103084;27;45260;-78
2022/05/12 15:02:58;;;;;;;;;5.67;4.00;;;;;;;;5095909;27;45531;-77
2022/05/12 15:05:24;;;;;;;;;1.33;1.33;;;;;;;;5085308;28;45383;-77
2022/05/12 15:07:49;;;;;;;;;3.00;2.67;;;;;;;;5085087;28;45329;-78
2022/05/12 15:10:14;;;;;;;;;2.00;1.00;;;;;;;;5085129;28;45492;-78
2022/05/12 15:12:39;;;;;;;;;3.00;3.00;;;;;;;;5084479;28;45333;-78
2022/05/12 15:15:06;;;;;;;;;0.00;0.00;;;;;;;;5092061;27;48019;-78